| time (UTC) | temp F | wind direction | speed MPH | gust MPH | rain 1hr in | rain 24hr in | rain mn in | humidity % | barometer mb |
| 20260510095508 | 50 | 337 | 3.0 | 12.0 | 0.00 | 0.00 | 0.00 | 58 | 1019.9 |
| 20260510095011 | 49 | 316 | 4.0 | 12.0 | 0.00 | 0.00 | 0.00 | 60 | 1019.8 |
| 20260510094531 | 49 | 268 | 2.0 | 11.0 | 0.00 | 0.00 | 0.00 | 60 | 1019.9 |
| 20260510094008 | 49 | 275 | 1.0 | 12.0 | 0.00 | 0.00 | 0.00 | 60 | 1020.0 |
| 20260510093510 | 49 | 0 | 0.0 | 14.0 | 0.00 | 0.00 | 0.00 | 61 | 1020.1 |
| 20260510093028 | 49 | 300 | 4.0 | 14.0 | 0.00 | 0.00 | 0.00 | 61 | 1020.1 |
| 20260510092512 | 49 | 274 | 2.0 | 10.0 | 0.00 | 0.00 | 0.00 | 62 | 1020.3 |
| 20260510092012 | 48 | 301 | 2.0 | 10.0 | 0.00 | 0.00 | 0.00 | 61 | 1020.3 |
| 20260510091546 | 48 | 285 | 1.0 | 12.0 | 0.00 | 0.00 | 0.00 | 61 | 1020.2 |
| 20260510091010 | 49 | 265 | 3.0 | 15.0 | 0.00 | 0.00 | 0.00 | 60 | 1020.4 |
| 20260510090509 | 49 | 0 | 1.0 | 15.0 | 0.00 | 0.00 | 0.00 | 61 | 1020.4 |
| 20260510090026 | 49 | 0 | 3.0 | 14.0 | 0.00 | 0.00 | 0.00 | 61 | 1020.6 |
| 20260510085512 | 49 | 261 | 2.0 | 13.0 | 0.00 | 0.00 | 0.00 | 64 | 1020.6 |
| 20260510085009 | 48 | 0 | 1.0 | 11.0 | 0.00 | 0.00 | 0.00 | 62 | 1020.6 |
| 20260510084528 | 47 | 0 | 1.0 | 8.0 | 0.00 | 0.00 | 0.00 | 62 | 1020.6 |
| 20260510084009 | 47 | 0 | 0.0 | 10.0 | 0.00 | 0.00 | 0.00 | 63 | 1020.7 |
| 20260510083517 | 46 | 296 | 2.0 | 12.0 | 0.00 | 0.00 | 0.00 | 64 | 1020.8 |
| 20260510083029 | 46 | 0 | 0.0 | 12.0 | 0.00 | 0.00 | 0.00 | 64 | 1020.9 |
| 20260510082508 | 46 | 269 | 3.0 | 9.0 | 0.00 | 0.00 | 0.00 | 64 | 1021.0 |
| 20260510082008 | 46 | 0 | 1.0 | 8.0 | 0.00 | 0.00 | 0.00 | 63 | 1021.2 |
| 20260510081536 | 46 | 0 | 0.0 | 8.0 | 0.00 | 0.00 | 0.00 | 65 | 1021.2 |
| 20260510081009 | 45 | 0 | 0.0 | 7.0 | 0.00 | 0.00 | 0.00 | 65 | 1021.4 |
| 20260510080510 | 44 | 238 | 0.0 | 7.0 | 0.00 | 0.00 | 0.00 | 66 | 1021.4 |
| 20260510080029 | 44 | 284 | 1.0 | 7.0 | 0.00 | 0.00 | 0.00 | 66 | 1021.4 |
| 20260510075514 | 43 | 0 | 0.0 | 8.0 | 0.00 | 0.00 | 0.00 | 66 | 1021.5 |
| 20260510075007 | 43 | 0 | 0.0 | 8.0 | 0.00 | 0.00 | 0.00 | 68 | 1021.6 |
| 20260510074530 | 42 | 0 | 0.0 | 0.0 | 0.00 | 0.00 | 0.00 | 68 | 1021.7 |
| 20260510074019 | 42 | 0 | 0.0 | 0.0 | 0.00 | 0.00 | 0.00 | 66 | 1021.7 |
| 20260510073522 | 42 | 0 | 0.0 | 0.0 | 0.00 | 0.00 | 0.00 | 68 | 1021.7 |
| 20260510073036 | 42 | 0 | 0.0 | 0.0 | 0.00 | 0.00 | 0.00 | 67 | 1021.7 |
| 20260510072511 | 42 | 0 | 0.0 | 0.0 | 0.00 | 0.00 | 0.00 | 67 | 1021.9 |
| 20260510072009 | 41 | 0 | 0.0 | 0.0 | 0.00 | 0.00 | 0.00 | 68 | 1021.9 |
| 20260510071536 | 41 | 0 | 0.0 | 0.0 | 0.00 | 0.00 | 0.00 | 69 | 1022.0 |
| 20260510071009 | 41 | 0 | 0.0 | 0.0 | 0.00 | 0.00 | 0.00 | 71 | 1022.1 |
| 20260510070509 | 40 | 0 | 0.0 | 0.0 | 0.00 | 0.00 | 0.00 | 71 | 1022.3 |
| 20260510070034 | 40 | 0 | 0.0 | 0.0 | 0.00 | 0.00 | 0.00 | 73 | 1022.2 |
| 20260510065510 | 40 | 0 | 0.0 | 1.0 | 0.00 | 0.00 | 0.00 | 73 | 1022.3 |
| 20260510065011 | 39 | 0 | 0.0 | 3.0 | 0.00 | 0.00 | 0.00 | 75 | 1022.2 |
| 20260510064549 | 39 | 0 | 0.0 | 3.0 | 0.00 | 0.00 | 0.00 | 75 | 1022.3 |
| 20260510064009 | 39 | 0 | 0.0 | 4.0 | 0.00 | 0.00 | 0.00 | 76 | 1022.3 |
| 20260510063507 | 38 | 0 | 0.0 | 5.0 | 0.00 | 0.00 | 0.00 | 77 | 1022.3 |
| 20260510063038 | 38 | 277 | 1.0 | 6.0 | 0.00 | 0.00 | 0.00 | 78 | 1022.2 |
| 20260510062511 | 37 | 277 | 1.0 | 6.0 | 0.00 | 0.00 | 0.00 | 79 | 1022.2 |
| 20260510062010 | 37 | 281 | 1.0 | 4.0 | 0.00 | 0.00 | 0.00 | 81 | 1022.3 |
| 20260510061542 | 36 | 0 | 0.0 | 4.0 | 0.00 | 0.00 | 0.00 | 82 | 1022.3 |
| 20260510061010 | 36 | 277 | 1.0 | 4.0 | 0.00 | 0.00 | 0.00 | 84 | 1022.3 |
| 20260510060509 | 35 | 0 | 0.0 | 4.0 | 0.00 | 0.00 | 0.00 | 85 | 1022.3 |
| 20260510060036 | 34 | 0 | 0.0 | 3.0 | 0.00 | 0.00 | 0.00 | 86 | 1022.4 |
| 20260510055510 | 33 | 254 | 0.0 | 3.0 | 0.00 | 0.00 | 0.00 | 88 | 1022.4 |
| 20260510055009 | 33 | 0 | 0.0 | 0.0 | 0.00 | 0.00 | 0.00 | 87 | 1022.6 |
| 20260510054528 | 32 | 0 | 0.0 | 0.0 | 0.00 | 0.00 | 0.00 | 87 | 1022.6 |
| 20260510054007 | 32 | 0 | 0.0 | 0.0 | 0.00 | 0.00 | 0.00 | 87 | 1022.6 |
| 20260510053513 | 32 | 0 | 0.0 | 0.0 | 0.00 | 0.00 | 0.00 | 87 | 1022.6 |
| 20260510053029 | 31 | 0 | 0.0 | 0.0 | 0.00 | 0.00 | 0.00 | 87 | 1022.6 |
| 20260510052515 | 31 | 0 | 0.0 | 0.0 | 0.00 | 0.00 | 0.00 | 87 | 1022.8 |
| 20260510052012 | 31 | 0 | 0.0 | 0.0 | 0.00 | 0.00 | 0.00 | 87 | 1022.9 |
| 20260510051526 | 31 | 0 | 0.0 | 0.0 | 0.00 | 0.00 | 0.00 | 87 | 1022.9 |
| 20260510051009 | 30 | 0 | 0.0 | 0.0 | 0.00 | 0.00 | 0.00 | 87 | 1023.0 |
| 20260510050509 | 30 | 0 | 0.0 | 0.0 | 0.00 | 0.00 | 0.00 | 87 | 1023.0 |
| 20260510050029 | 30 | 0 | 0.0 | 0.0 | 0.00 | 0.00 | 0.00 | 87 | 1022.9 |
| 20260510045510 | 30 | 0 | 0.0 | 0.0 | 0.00 | 0.00 | 0.00 | 86 | 1023.0 |
| 20260510045017 | 30 | 0 | 0.0 | 0.0 | 0.00 | 0.00 | 0.00 | 86 | 1023.0 |
| 20260510044533 | 29 | 0 | 0.0 | 0.0 | 0.00 | 0.00 | 0.00 | 86 | 1023.2 |
| 20260510044012 | 29 | 0 | 0.0 | 0.0 | 0.00 | 0.00 | 0.00 | 85 | 1023.2 |
| 20260510043511 | 29 | 0 | 0.0 | 0.0 | 0.00 | 0.00 | 0.00 | 85 | 1023.3 |
| 20260510043030 | 29 | 0 | 0.0 | 0.0 | 0.00 | 0.00 | 0.00 | 85 | 1023.3 |
| 20260510042510 | 29 | 0 | 0.0 | 0.0 | 0.00 | 0.00 | 0.00 | 85 | 1023.3 |
| 20260510042012 | 29 | 0 | 0.0 | 0.0 | 0.00 | 0.00 | 0.00 | 85 | 1023.3 |
| 20260510041526 | 29 | 0 | 0.0 | 0.0 | 0.00 | 0.00 | 0.00 | 85 | 1023.4 |
| 20260510041011 | 29 | 0 | 0.0 | 0.0 | 0.00 | 0.00 | 0.00 | 85 | 1023.5 |
| 20260510040511 | 30 | 0 | 0.0 | 0.0 | 0.00 | 0.00 | 0.00 | 85 | 1023.5 |
| 20260510040027 | 29 | 0 | 0.0 | 0.0 | 0.00 | 0.00 | 0.00 | 85 | 1023.4 |
| 20260510035510 | 29 | 0 | 0.0 | 0.0 | 0.00 | 0.00 | 0.00 | 84 | 1023.5 |
| 20260510035010 | 30 | 0 | 0.0 | 0.0 | 0.00 | 0.00 | 0.00 | 84 | 1023.5 |
| 20260510034528 | 30 | 0 | 0.0 | 0.0 | 0.00 | 0.00 | 0.00 | 84 | 1023.5 |
| 20260510034011 | 30 | 0 | 0.0 | 2.0 | 0.00 | 0.00 | 0.00 | 84 | 1023.6 |
| 20260510033507 | 30 | 0 | 0.0 | 2.0 | 0.00 | 0.00 | 0.00 | 85 | 1023.6 |
| 20260510033028 | 30 | 0 | 0.0 | 2.0 | 0.00 | 0.00 | 0.00 | 85 | 1023.7 |
| 20260510032511 | 30 | 0 | 0.0 | 0.0 | 0.00 | 0.00 | 0.00 | 86 | 1023.7 |
| 20260510032011 | 30 | 0 | 0.0 | 0.0 | 0.00 | 0.00 | 0.00 | 85 | 1023.7 |
| 20260510031533 | 30 | 0 | 0.0 | 0.0 | 0.00 | 0.00 | 0.00 | 84 | 1023.7 |
| 20260510031008 | 30 | 0 | 0.0 | 0.0 | 0.00 | 0.00 | 0.00 | 83 | 1023.6 |
| 20260510030508 | 30 | 0 | 0.0 | 0.0 | 0.00 | 0.00 | 0.00 | 83 | 1023.7 |
| 20260510030027 | 30 | 0 | 0.0 | 0.0 | 0.00 | 0.00 | 0.00 | 83 | 1023.8 |
| 20260510025513 | 30 | 0 | 0.0 | 0.0 | 0.00 | 0.00 | 0.00 | 83 | 1023.8 |
| 20260510025013 | 31 | 0 | 0.0 | 0.0 | 0.00 | 0.00 | 0.00 | 83 | 1023.9 |
| 20260510024532 | 31 | 0 | 0.0 | 0.0 | 0.00 | 0.00 | 0.00 | 83 | 1023.9 |
| 20260510024010 | 31 | 0 | 0.0 | 0.0 | 0.00 | 0.00 | 0.00 | 83 | 1023.8 |
| 20260510023510 | 31 | 0 | 0.0 | 0.0 | 0.00 | 0.00 | 0.00 | 83 | 1023.8 |
| 20260510023030 | 31 | 0 | 0.0 | 0.0 | 0.00 | 0.00 | 0.00 | 83 | 1023.8 |
| 20260510022508 | 32 | 0 | 0.0 | 0.0 | 0.00 | 0.00 | 0.00 | 83 | 1023.9 |
| 20260510022011 | 32 | 0 | 0.0 | 0.0 | 0.00 | 0.00 | 0.00 | 83 | 1024.0 |
| 20260510021528 | 32 | 0 | 0.0 | 0.0 | 0.00 | 0.00 | 0.00 | 83 | 1024.0 |
| 20260510021010 | 32 | 0 | 0.0 | 0.0 | 0.00 | 0.00 | 0.00 | 82 | 1023.9 |
| 20260510020509 | 32 | 0 | 0.0 | 0.0 | 0.00 | 0.00 | 0.00 | 82 | 1023.9 |
| 20260510020028 | 32 | 0 | 0.0 | 0.0 | 0.00 | 0.00 | 0.00 | 83 | 1024.0 |
| 20260510015509 | 33 | 0 | 0.0 | 0.0 | 0.00 | 0.00 | 0.00 | 83 | 1024.0 |
| 20260510015010 | 32 | 0 | 0.0 | 0.0 | 0.00 | 0.00 | 0.00 | 83 | 1024.0 |
| 20260510014531 | 32 | 0 | 0.0 | 0.0 | 0.00 | 0.00 | 0.00 | 82 | 1024.0 |
| 20260510014011 | 32 | 0 | 0.0 | 0.0 | 0.00 | 0.00 | 0.00 | 82 | 1024.1 |
| 20260510013511 | 33 | 0 | 0.0 | 0.0 | 0.00 | 0.00 | 0.00 | 80 | 1024.1 |
| 20260510013026 | 33 | 0 | 0.0 | 0.0 | 0.00 | 0.00 | 0.00 | 79 | 1024.1 |
| 20260510012508 | 33 | 0 | 0.0 | 0.0 | 0.00 | 0.00 | 0.00 | 80 | 1024.2 |
| 20260510012009 | 34 | 0 | 0.0 | 0.0 | 0.00 | 0.00 | 0.00 | 79 | 1024.2 |
| 20260510011530 | 34 | 0 | 0.0 | 0.0 | 0.00 | 0.00 | 0.00 | 79 | 1024.3 |
| 20260510011013 | 34 | 0 | 0.0 | 0.0 | 0.00 | 0.00 | 0.00 | 79 | 1024.4 |
| 20260510010510 | 35 | 0 | 0.0 | 0.0 | 0.00 | 0.00 | 0.00 | 79 | 1024.4 |
| 20260510010030 | 35 | 0 | 0.0 | 0.0 | 0.00 | 0.00 | 0.00 | 79 | 1024.4 |
| 20260510005507 | 35 | 0 | 0.0 | 0.0 | 0.00 | 0.00 | 0.00 | 78 | 1024.4 |
| 20260510005008 | 36 | 0 | 0.0 | 0.0 | 0.00 | 0.00 | 0.00 | 77 | 1024.5 |
| 20260510004527 | 36 | 0 | 0.0 | 0.0 | 0.00 | 0.00 | 0.00 | 77 | 1024.6 |
| 20260510004015 | 36 | 0 | 0.0 | 0.0 | 0.00 | 0.00 | 0.00 | 82 | 1024.6 |
| 20260510003516 | 37 | 0 | 0.0 | 0.0 | 0.00 | 0.00 | 0.00 | 77 | 1024.6 |
| 20260510003043 | 37 | 0 | 0.0 | 0.0 | 0.00 | 0.00 | 0.00 | 77 | 1024.7 |
| 20260510002511 | 37 | 0 | 0.0 | 0.0 | 0.00 | 0.00 | 0.00 | 77 | 1024.6 |
| 20260510002010 | 37 | 0 | 0.0 | 0.0 | 0.00 | 0.00 | 0.00 | 77 | 1024.6 |
| 20260510001528 | 37 | 0 | 0.0 | 0.0 | 0.00 | 0.00 | 0.00 | 78 | 1024.7 |
| 20260510001008 | 37 | 0 | 0.0 | 2.0 | 0.00 | 0.00 | 0.00 | 78 | 1024.7 |
| 20260510000511 | 37 | 0 | 0.0 | 2.0 | 0.00 | 0.00 | 0.00 | 77 | 1024.8 |
| 20260510000030 | 38 | 0 | 0.0 | 2.0 | 0.00 | 0.00 | 0.00 | 77 | 1024.8 |
| 20260509235510 | 38 | 0 | 0.0 | 2.0 | 0.00 | 0.00 | 0.00 | 76 | 1024.8 |
| 20260509235012 | 38 | 0 | 0.0 | 0.0 | 0.00 | 0.00 | 0.00 | 75 | 1024.9 |
| 20260509234544 | 39 | 0 | 0.0 | 0.0 | 0.00 | 0.00 | 0.00 | 76 | 1024.9 |
| 20260509234009 | 39 | 0 | 0.0 | 0.0 | 0.00 | 0.00 | 0.00 | 76 | 1025.0 |
| 20260509233508 | 39 | 0 | 0.0 | 0.0 | 0.00 | 0.00 | 0.00 | 76 | 1024.9 |
| 20260509233040 | 39 | 0 | 0.0 | 0.0 | 0.00 | 0.00 | 0.00 | 76 | 1024.8 |
| 20260509232510 | 40 | 0 | 0.0 | 0.0 | 0.00 | 0.00 | 0.00 | 76 | 1024.9 |
| 20260509232011 | 40 | 0 | 0.0 | 0.0 | 0.00 | 0.00 | 0.00 | 76 | 1024.9 |
| 20260509231530 | 40 | 0 | 0.0 | 0.0 | 0.00 | 0.00 | 0.00 | 76 | 1025.0 |
| 20260509231011 | 40 | 0 | 0.0 | 0.0 | 0.00 | 0.00 | 0.00 | 75 | 1025.0 |
| 20260509230510 | 40 | 0 | 0.0 | 3.0 | 0.00 | 0.00 | 0.00 | 76 | 1025.2 |
| 20260509230028 | 39 | 0 | 0.0 | 3.0 | 0.00 | 0.00 | 0.00 | 76 | 1025.2 |
| 20260509225511 | 39 | 0 | 0.0 | 3.0 | 0.00 | 0.00 | 0.00 | 76 | 1025.3 |
| 20260509225009 | 39 | 0 | 0.0 | 1.0 | 0.00 | 0.00 | 0.00 | 77 | 1025.2 |
| 20260509224531 | 40 | 0 | 0.0 | 0.0 | 0.00 | 0.00 | 0.00 | 78 | 1025.3 |
| 20260509224013 | 40 | 0 | 0.0 | 0.0 | 0.00 | 0.00 | 0.00 | 77 | 1025.2 |
| 20260509223508 | 40 | 0 | 0.0 | 0.0 | 0.00 | 0.00 | 0.00 | 77 | 1025.2 |
| 20260509223035 | 40 | 0 | 0.0 | 0.0 | 0.00 | 0.00 | 0.00 | 76 | 1025.2 |
| 20260509222511 | 40 | 0 | 0.0 | 0.0 | 0.00 | 0.00 | 0.00 | 76 | 1025.2 |
| 20260509222011 | 40 | 0 | 0.0 | 0.0 | 0.00 | 0.00 | 0.00 | 75 | 1025.2 |
| 20260509221529 | 40 | 0 | 0.0 | 0.0 | 0.00 | 0.00 | 0.00 | 75 | 1025.3 |
| 20260509221014 | 40 | 0 | 0.0 | 0.0 | 0.00 | 0.00 | 0.00 | 74 | 1025.3 |
| 20260509220507 | 40 | 0 | 0.0 | 0.0 | 0.00 | 0.00 | 0.00 | 75 | 1025.4 |
| 20260509220029 | 40 | 0 | 0.0 | 0.0 | 0.00 | 0.00 | 0.00 | 75 | 1025.5 |
| 20260509215510 | 40 | 0 | 0.0 | 0.0 | 0.00 | 0.01 | 0.00 | 75 | 1025.5 |
| 20260509215017 | 40 | 0 | 0.0 | 0.0 | 0.00 | 0.01 | 0.00 | 76 | 1025.5 |
| 20260509214529 | 40 | 0 | 0.0 | 0.0 | 0.00 | 0.01 | 0.00 | 75 | 1025.5 |
| 20260509214012 | 40 | 0 | 0.0 | 0.0 | 0.00 | 0.01 | 0.00 | 75 | 1025.3 |
| 20260509213512 | 40 | 0 | 0.0 | 0.0 | 0.00 | 0.01 | 0.00 | 75 | 1025.4 |
| 20260509213030 | 40 | 0 | 0.0 | 0.0 | 0.00 | 0.01 | 0.00 | 76 | 1025.5 |
| 20260509212513 | 40 | 0 | 0.0 | 0.0 | 0.00 | 0.01 | 0.00 | 76 | 1025.5 |
| 20260509212014 | 40 | 0 | 0.0 | 0.0 | 0.00 | 0.01 | 0.00 | 77 | 1025.5 |
| 20260509211528 | 40 | 0 | 0.0 | 0.0 | 0.00 | 0.01 | 0.00 | 78 | 1025.4 |
| 20260509211011 | 40 | 0 | 0.0 | 0.0 | 0.00 | 0.01 | 0.00 | 77 | 1025.4 |
| 20260509210510 | 40 | 0 | 0.0 | 0.0 | 0.00 | 0.01 | 0.00 | 77 | 1025.5 |
| 20260509210030 | 40 | 0 | 0.0 | 0.0 | 0.00 | 0.01 | 0.00 | 76 | 1025.5 |
| 20260509205508 | 40 | 0 | 0.0 | 0.0 | 0.00 | 0.03 | 0.00 | 76 | 1025.5 |
| 20260509205008 | 40 | 0 | 0.0 | 0.0 | 0.00 | 0.03 | 0.00 | 75 | 1025.4 |
| 20260509204534 | 40 | 0 | 0.0 | 0.0 | 0.00 | 0.03 | 0.00 | 73 | 1025.4 |
| 20260509204017 | 41 | 0 | 0.0 | 0.0 | 0.00 | 0.03 | 0.00 | 73 | 1025.3 |
| 20260509203511 | 41 | 0 | 0.0 | 0.0 | 0.00 | 0.03 | 0.00 | 72 | 1025.3 |
| 20260509203035 | 41 | 0 | 0.0 | 0.0 | 0.00 | 0.03 | 0.00 | 71 | 1025.3 |
| 20260509202512 | 42 | 0 | 0.0 | 0.0 | 0.00 | 0.03 | 0.00 | 70 | 1025.3 |
| 20260509202013 | 42 | 0 | 0.0 | 0.0 | 0.00 | 0.03 | 0.00 | 70 | 1025.2 |
| 20260509201529 | 43 | 0 | 0.0 | 0.0 | 0.00 | 0.03 | 0.00 | 69 | 1025.1 |
| 20260509201014 | 43 | 0 | 0.0 | 0.0 | 0.00 | 0.03 | 0.00 | 69 | 1025.0 |
| 20260509200517 | 43 | 0 | 0.0 | 0.0 | 0.00 | 0.03 | 0.00 | 68 | 1025.1 |
| 20260509200029 | 44 | 0 | 0.0 | 0.0 | 0.00 | 0.03 | 0.00 | 67 | 1025.1 |
| 20260509195511 | 44 | 0 | 0.0 | 0.0 | 0.00 | 0.04 | 0.00 | 66 | 1025.1 |
| 20260509195015 | 45 | 0 | 0.0 | 0.0 | 0.00 | 0.04 | 0.00 | 64 | 1025.0 |
| 20260509194530 | 45 | 0 | 0.0 | 0.0 | 0.00 | 0.04 | 0.00 | 64 | 1025.0 |
| 20260509194013 | 45 | 0 | 0.0 | 0.0 | 0.00 | 0.04 | 0.00 | 62 | 1025.0 |
| 20260509193509 | 45 | 0 | 0.0 | 0.0 | 0.00 | 0.04 | 0.00 | 61 | 1025.1 |
| 20260509193029 | 46 | 0 | 0.0 | 0.0 | 0.00 | 0.04 | 0.00 | 60 | 1025.0 |
| 20260509192510 | 46 | 0 | 0.0 | 0.0 | 0.00 | 0.04 | 0.00 | 60 | 1025.0 |
| 20260509192012 | 47 | 0 | 0.0 | 0.0 | 0.00 | 0.04 | 0.00 | 59 | 1025.0 |
| 20260509191528 | 47 | 0 | 0.0 | 0.0 | 0.00 | 0.04 | 0.00 | 58 | 1024.9 |
| 20260509191015 | 48 | 0 | 0.0 | 1.0 | 0.00 | 0.04 | 0.00 | 56 | 1024.8 |
| 20260509190511 | 48 | 0 | 0.0 | 1.0 | 0.00 | 0.04 | 0.00 | 55 | 1024.7 |
| 20260509190034 | 49 | 0 | 0.0 | 2.0 | 0.00 | 0.04 | 0.00 | 55 | 1024.7 |
| 20260509185511 | 49 | 0 | 0.0 | 3.0 | 0.00 | 0.07 | 0.00 | 53 | 1024.7 |
| 20260509185011 | 49 | 0 | 0.0 | 3.0 | 0.00 | 0.07 | 0.00 | 54 | 1024.7 |
| 20260509184538 | 50 | 0 | 0.0 | 3.0 | 0.00 | 0.07 | 0.00 | 53 | 1024.6 |
| 20260509184012 | 50 | 0 | 0.0 | 4.0 | 0.00 | 0.07 | 0.00 | 53 | 1024.5 |
| 20260509183508 | 49 | 44 | 0.0 | 4.0 | 0.00 | 0.07 | 0.00 | 52 | 1024.5 |
| 20260509183033 | 49 | 0 | 0.0 | 6.0 | 0.00 | 0.07 | 0.00 | 52 | 1024.4 |
| 20260509182511 | 49 | 0 | 1.0 | 6.0 | 0.00 | 0.07 | 0.00 | 52 | 1024.5 |
| 20260509182013 | 49 | 0 | 0.0 | 4.0 | 0.00 | 0.07 | 0.00 | 52 | 1024.4 |
| 20260509181529 | 49 | 0 | 0.0 | 9.0 | 0.00 | 0.07 | 0.00 | 53 | 1024.4 |
| 20260509181008 | 49 | 0 | 0.0 | 9.0 | 0.00 | 0.07 | 0.00 | 52 | 1024.3 |
| 20260509180507 | 49 | 0 | 0.0 | 9.0 | 0.00 | 0.07 | 0.00 | 52 | 1024.3 |
| 20260509180029 | 49 | 0 | 0.0 | 4.0 | 0.00 | 0.07 | 0.00 | 54 | 1024.2 |
| 20260509175517 | 49 | 0 | 0.0 | 4.0 | 0.00 | 0.07 | 0.00 | 54 | 1024.2 |
| 20260509175011 | 50 | 0 | 0.0 | 4.0 | 0.00 | 0.07 | 0.00 | 52 | 1024.1 |
| 20260509174527 | 50 | 0 | 0.0 | 5.0 | 0.00 | 0.07 | 0.00 | 53 | 1024.1 |
| 20260509174011 | 50 | 0 | 0.0 | 5.0 | 0.00 | 0.07 | 0.00 | 52 | 1024.1 |
| 20260509173515 | 51 | 0 | 0.0 | 5.0 | 0.00 | 0.07 | 0.00 | 52 | 1024.0 |
| 20260509173031 | 51 | 0 | 0.0 | 8.0 | 0.00 | 0.07 | 0.00 | 51 | 1024.0 |
| 20260509172511 | 51 | 80 | 0.0 | 8.0 | 0.00 | 0.07 | 0.00 | 50 | 1024.0 |
| 20260509172009 | 51 | 0 | 1.0 | 7.0 | 0.00 | 0.07 | 0.00 | 50 | 1024.0 |
| 20260509171537 | 51 | 0 | 0.0 | 4.0 | 0.00 | 0.07 | 0.00 | 50 | 1024.0 |
| 20260509171015 | 51 | 0 | 0.0 | 3.0 | 0.00 | 0.07 | 0.00 | 50 | 1023.9 |
| 20260509170508 | 51 | 338 | 0.0 | 5.0 | 0.00 | 0.07 | 0.00 | 48 | 1023.9 |
| 20260509170031 | 50 | 0 | 0.0 | 5.0 | 0.00 | 0.07 | 0.00 | 51 | 1023.8 |
| 20260509165508 | 49 | 0 | 0.0 | 1.0 | 0.00 | 0.08 | 0.00 | 53 | 1023.9 |
| 20260509165008 | 49 | 0 | 0.0 | 4.0 | 0.00 | 0.08 | 0.00 | 52 | 1023.9 |
| 20260509164528 | 49 | 0 | 0.0 | 5.0 | 0.00 | 0.08 | 0.00 | 52 | 1023.9 |
| 20260509164011 | 49 | 0 | 0.0 | 5.0 | 0.00 | 0.08 | 0.00 | 54 | 1024.1 |
| 20260509163509 | 50 | 0 | 1.0 | 11.0 | 0.00 | 0.08 | 0.00 | 54 | 1024.1 |
| 20260509163051 | 50 | 76 | 2.0 | 11.0 | 0.00 | 0.08 | 0.00 | 52 | 1024.0 |
| 20260509162517 | 51 | 0 | 1.0 | 10.0 | 0.00 | 0.08 | 0.00 | 54 | 1024.0 |
| 20260509162010 | 51 | 322 | 0.0 | 10.0 | 0.00 | 0.08 | 0.00 | 52 | 1024.0 |
| 20260509161537 | 51 | 0 | 0.0 | 10.0 | 0.00 | 0.08 | 0.00 | 53 | 1024.0 |
| 20260509161014 | 51 | 79 | 1.0 | 10.0 | 0.00 | 0.08 | 0.00 | 53 | 1024.0 |
| 20260509160509 | 51 | 0 | 0.0 | 9.0 | 0.00 | 0.08 | 0.00 | 53 | 1023.9 |
| 20260509160028 | 52 | 0 | 2.0 | 9.0 | 0.00 | 0.08 | 0.00 | 55 | 1023.9 |
| 20260509155510 | 52 | 74 | 2.0 | 10.0 | 0.00 | 0.08 | 0.00 | 52 | 1023.9 |
| 20260509155009 | 51 | 344 | 1.0 | 10.0 | 0.00 | 0.08 | 0.00 | 52 | 1024.0 |
| 20260509154535 | 51 | 0 | 1.0 | 9.0 | 0.00 | 0.08 | 0.00 | 53 | 1024.0 |
| 20260509154010 | 51 | 360 | 1.0 | 9.0 | 0.00 | 0.08 | 0.00 | 52 | 1024.0 |
| 20260509153511 | 51 | 80 | 0.0 | 13.0 | 0.00 | 0.08 | 0.00 | 53 | 1024.0 |
| 20260509153029 | 51 | 36 | 2.0 | 13.0 | 0.00 | 0.08 | 0.00 | 52 | 1024.0 |
| 20260509152509 | 51 | 317 | 0.0 | 10.0 | 0.00 | 0.08 | 0.00 | 52 | 1023.9 |
| 20260509152013 | 52 | 0 | 0.0 | 10.0 | 0.00 | 0.08 | 0.00 | 50 | 1023.9 |
| 20260509151528 | 52 | 0 | 0.0 | 4.0 | 0.00 | 0.08 | 0.00 | 49 | 1023.9 |
| 20260509151008 | 53 | 69 | 0.0 | 6.0 | 0.00 | 0.08 | 0.00 | 50 | 1023.8 |
| 20260509150515 | 52 | 0 | 0.0 | 7.0 | 0.00 | 0.08 | 0.00 | 51 | 1023.8 |
| 20260509150029 | 52 | 31 | 0.0 | 7.0 | 0.00 | 0.08 | 0.00 | 52 | 1023.8 |
| 20260509145509 | 51 | 74 | 0.0 | 9.0 | 0.00 | 0.08 | 0.00 | 52 | 1023.8 |
| 20260509145013 | 51 | 0 | 1.0 | 9.0 | 0.00 | 0.08 | 0.00 | 50 | 1023.9 |
| 20260509144532 | 51 | 0 | 0.0 | 10.0 | 0.00 | 0.08 | 0.00 | 52 | 1023.9 |
| 20260509144009 | 51 | 341 | 0.0 | 14.0 | 0.00 | 0.08 | 0.00 | 51 | 1023.9 |
| 20260509143511 | 51 | 0 | 0.0 | 14.0 | 0.00 | 0.08 | 0.00 | 50 | 1023.9 |
| 20260509143034 | 51 | 339 | 1.0 | 12.0 | 0.00 | 0.08 | 0.00 | 52 | 1023.9 |
| 20260509142511 | 51 | 17 | 0.0 | 8.0 | 0.00 | 0.08 | 0.00 | 51 | 1023.9 |
| 20260509142011 | 52 | 0 | 1.0 | 8.0 | 0.00 | 0.08 | 0.00 | 51 | 1023.8 |
| 20260509141530 | 52 | 50 | 0.0 | 8.0 | 0.00 | 0.08 | 0.00 | 50 | 1023.8 |
| 20260509141011 | 53 | 82 | 0.0 | 8.0 | 0.00 | 0.08 | 0.00 | 49 | 1023.8 |
| 20260509140510 | 53 | 59 | 1.0 | 8.0 | 0.00 | 0.08 | 0.00 | 50 | 1023.9 |
| 20260509140028 | 53 | 318 | 0.0 | 7.0 | 0.00 | 0.08 | 0.00 | 50 | 1023.9 |
| 20260509135512 | 53 | 321 | 1.0 | 10.0 | 0.00 | 0.08 | 0.00 | 46 | 1023.9 |
| 20260509135011 | 52 | 0 | 3.0 | 10.0 | 0.00 | 0.08 | 0.00 | 47 | 1024.0 |
| 20260509134530 | 52 | 0 | 1.0 | 10.0 | 0.00 | 0.08 | 0.00 | 48 | 1024.0 |
| 20260509134012 | 52 | 17 | 1.0 | 10.0 | 0.00 | 0.08 | 0.00 | 50 | 1024.1 |
| 20260509133514 | 51 | 0 | 1.0 | 10.0 | 0.00 | 0.08 | 0.00 | 54 | 1024.1 |
| 20260509133028 | 51 | 0 | 0.0 | 10.0 | 0.00 | 0.08 | 0.00 | 54 | 1024.1 |
| 20260509132510 | 51 | 0 | 1.0 | 14.0 | 0.00 | 0.08 | 0.00 | 53 | 1024.0 |
| 20260509132011 | 52 | 334 | 2.0 | 14.0 | 0.00 | 0.08 | 0.00 | 52 | 1024.0 |
| 20260509131528 | 52 | 0 | 0.0 | 10.0 | 0.00 | 0.08 | 0.00 | 51 | 1023.9 |
| 20260509131014 | 52 | 0 | 0.0 | 9.0 | 0.00 | 0.08 | 0.00 | 51 | 1024.0 |
| 20260509130516 | 51 | 0 | 0.0 | 9.0 | 0.00 | 0.08 | 0.00 | 52 | 1024.1 |
| 20260509130029 | 52 | 352 | 1.0 | 9.0 | 0.00 | 0.08 | 0.00 | 52 | 1024.1 |
| 20260509125514 | 52 | 0 | 0.0 | 9.0 | 0.00 | 0.08 | 0.00 | 55 | 1024.1 |
| 20260509125007 | 51 | 9 | 2.0 | 9.0 | 0.00 | 0.08 | 0.00 | 55 | 1024.2 |
| 20260509124537 | 50 | 0 | 0.0 | 4.0 | 0.00 | 0.08 | 0.00 | 58 | 1024.2 |
| 20260509124008 | 49 | 0 | 0.0 | 9.0 | 0.00 | 0.08 | 0.00 | 56 | 1024.2 |
| 20260509123509 | 49 | 0 | 0.0 | 10.0 | 0.00 | 0.08 | 0.00 | 58 | 1024.1 |
| 20260509123027 | 49 | 17 | 2.0 | 10.0 | 0.00 | 0.08 | 0.00 | 57 | 1024.1 |
| 20260509122514 | 48 | 22 | 2.0 | 10.0 | 0.00 | 0.08 | 0.00 | 57 | 1024.2 |
| 20260509122014 | 48 | 0 | 0.0 | 8.0 | 0.00 | 0.08 | 0.00 | 59 | 1024.1 |
| 20260509121538 | 48 | 76 | 0.0 | 9.0 | 0.00 | 0.08 | 0.00 | 59 | 1024.2 |
| 20260509121007 | 48 | 0 | 0.0 | 9.0 | 0.00 | 0.08 | 0.00 | 63 | 1024.1 |
| 20260509120511 | 48 | 0 | 2.0 | 9.0 | 0.00 | 0.08 | 0.00 | 61 | 1024.2 |
| 20260509120027 | 49 | 0 | 0.0 | 9.0 | 0.00 | 0.08 | 0.00 | 62 | 1024.1 |
| 20260509115511 | 49 | 0 | 3.0 | 9.0 | 0.00 | 0.08 | 0.00 | 63 | 1024.1 |
| 20260509115009 | 49 | 61 | 0.0 | 7.0 | 0.00 | 0.08 | 0.00 | 65 | 1024.1 |
| 20260509114547 | 49 | 71 | 1.0 | 8.0 | 0.00 | 0.08 | 0.00 | 63 | 1024.2 |
| 20260509114010 | 49 | 0 | 3.0 | 9.0 | 0.00 | 0.08 | 0.00 | 63 | 1024.2 |
| 20260509113509 | 49 | 103 | 1.0 | 9.0 | 0.00 | 0.08 | 0.00 | 62 | 1024.3 |
| 20260509113026 | 49 | 0 | 1.0 | 10.0 | 0.00 | 0.08 | 0.00 | 58 | 1024.4 |
| 20260509112508 | 49 | 0 | 0.0 | 10.0 | 0.00 | 0.08 | 0.00 | 59 | 1024.4 |
| 20260509112009 | 49 | 306 | 1.0 | 9.0 | 0.00 | 0.08 | 0.00 | 60 | 1024.4 |
| 20260509111527 | 49 | 355 | 1.0 | 8.0 | 0.00 | 0.08 | 0.00 | 59 | 1024.2 |
| 20260509111010 | 49 | 0 | 0.0 | 4.0 | 0.00 | 0.08 | 0.00 | 58 | 1024.3 |
| 20260509110514 | 49 | 0 | 0.0 | 10.0 | 0.00 | 0.08 | 0.00 | 59 | 1024.3 |
| 20260509110028 | 49 | 0 | 0.0 | 10.0 | 0.00 | 0.08 | 0.00 | 59 | 1024.4 |
| 20260509105507 | 49 | 352 | 1.0 | 10.0 | 0.00 | 0.08 | 0.00 | 58 | 1024.4 |
| 20260509105009 | 49 | 0 | 0.0 | 10.0 | 0.00 | 0.08 | 0.00 | 58 | 1024.3 |
| 20260509104527 | 49 | 315 | 1.0 | 10.0 | 0.00 | 0.08 | 0.00 | 60 | 1024.3 |
| 20260509104010 | 49 | 0 | 0.0 | 12.0 | 0.00 | 0.08 | 0.00 | 59 | 1024.1 |
| 20260509103509 | 49 | 360 | 1.0 | 12.0 | 0.00 | 0.08 | 0.00 | 60 | 1024.1 |
| 20260509103026 | 49 | 351 | 1.0 | 12.0 | 0.00 | 0.08 | 0.00 | 58 | 1024.1 |
| 20260509102509 | 49 | 0 | 0.0 | 8.0 | 0.00 | 0.08 | 0.00 | 56 | 1023.8 |
| 20260509102008 | 49 | 351 | 1.0 | 8.0 | 0.00 | 0.08 | 0.00 | 56 | 1024.0 |
| 20260509101528 | 49 | 0 | 0.0 | 6.0 | 0.00 | 0.08 | 0.00 | 58 | 1024.0 |
| 20260509101008 | 48 | 0 | 0.0 | 4.0 | 0.00 | 0.08 | 0.00 | 59 | 1024.0 |
| 20260509100510 | 48 | 0 | 0.0 | 5.0 | 0.00 | 0.08 | 0.00 | 59 | 1024.0 |
| 20260509100028 | 48 | 321 | 0.0 | 8.0 | 0.00 | 0.08 | 0.00 | 57 | 1024.1 |